Time;durP1;ratioP1;P1;durP2;ratioP2;P2;SDS_P1;SDS_P2;PMS_P1;PMS_P2;Temp;Humidity;BMP_temperature;BMP_pressure;BME280_temperature;BME280_humidity;BME280_pressure;Samples;Min_cycle;Max_cycle;Signal;HPM_P1;HPM_P2
2023/04/12 00:00:26;;;;;;;7.20;4.40;;;8.70;39.20;;;;;;5032134;28;20419;-52
2023/04/12 00:02:52;;;;;;;5.43;4.67;;;8.70;39.20;;;;;;5032090;28;20642;-52
2023/04/12 00:05:21;;;;;;;7.90;4.35;;;8.70;39.40;;;;;;5031913;28;20870;-52
2023/04/12 00:07:48;;;;;;;5.05;4.40;;;8.60;39.30;;;;;;5032026;28;20212;-52
2023/04/12 00:10:14;;;;;;;6.93;4.82;;;8.60;39.60;;;;;;5032094;28;20169;-53
2023/04/12 00:12:40;;;;;;;5.97;4.40;;;8.60;39.60;;;;;;5031810;28;20694;-53
2023/04/12 00:15:07;;;;;;;14.20;4.37;;;8.50;39.70;;;;;;5031851;28;20267;-52
2023/04/12 00:17:32;;;;;;;7.90;3.75;;;8.40;40.00;;;;;;5032164;28;20413;-52
2023/04/12 00:19:58;;;;;;;6.80;4.30;;;8.40;40.10;;;;;;5032036;28;20672;-52
2023/04/12 00:22:25;;;;;;;6.03;4.53;;;8.40;39.80;;;;;;5031751;28;20166;-52
2023/04/12 00:24:51;;;;;;;7.20;5.13;;;8.40;39.80;;;;;;5031939;28;20452;-53
2023/04/12 00:27:16;;;;;;;6.00;4.73;;;8.50;39.60;;;;;;5032004;28;20188;-52
2023/04/12 00:29:42;;;;;;;7.13;4.40;;;8.50;39.60;;;;;;5032018;28;20167;-50
2023/04/12 00:32:08;;;;;;;7.20;4.37;;;8.40;39.50;;;;;;5031680;28;20184;-52
2023/04/12 00:34:34;;;;;;;9.70;4.47;;;8.30;39.60;;;;;;5031836;28;20166;-52
2023/04/12 00:37:00;;;;;;;7.27;5.30;;;8.30;39.60;;;;;;5031613;28;20212;-52
2023/04/12 00:39:26;;;;;;;5.47;4.13;;;8.30;39.60;;;;;;5031821;28;20174;-50
2023/04/12 00:41:52;;;;;;;10.00;5.13;;;8.20;39.60;;;;;;5031622;28;20183;-52
2023/04/12 00:44:18;;;;;;;8.83;4.77;;;8.20;39.50;;;;;;5031589;28;20457;-52
2023/04/12 00:46:46;;;;;;;6.27;4.77;;;8.20;39.40;;;;;;5031867;28;20193;-51
2023/04/12 00:49:12;;;;;;;6.68;4.85;;;8.10;39.70;;;;;;5031682;28;20916;-52
2023/04/12 00:51:39;;;;;;;6.93;5.37;;;8.00;39.70;;;;;;5031709;28;20185;-53
2023/04/12 00:54:05;;;;;;;6.18;4.45;;;8.00;39.70;;;;;;5031553;28;20184;-52
2023/04/12 00:56:32;;;;;;;7.07;4.35;;;8.10;39.80;;;;;;5031508;28;20673;-52
2023/04/12 00:58:58;;;;;;;7.25;5.53;;;8.10;39.60;;;;;;5034751;28;20263;-51
2023/04/12 01:01:24;;;;;;;13.27;6.27;;;8.10;39.70;;;;;;5035384;28;20208;-52
2023/04/12 01:03:52;;;;;;;8.73;6.20;;;8.20;40.00;;;;;;5035185;28;20172;-51
2023/04/12 01:06:37;;;;;;;7.88;5.88;;;8.20;39.90;;;;;;5035144;28;20983;-52
2023/04/12 01:09:22;;;;;;;7.72;5.95;;;8.20;39.80;;;;;;5035326;28;20499;-51
2023/04/12 01:12:23;;;;;;;9.63;5.07;;;8.20;39.70;;;;;;5035370;28;20177;-52
2023/04/12 01:15:11;;;;;;;13.70;6.47;;;8.20;39.70;;;;;;5010225;28;20190;-52
2023/04/12 01:17:51;;;;;;;11.35;6.00;;;8.30;39.80;;;;;;5035276;28;20184;-51
2023/04/12 01:20:22;;;;;;;7.60;5.65;;;8.20;39.70;;;;;;5035364;28;20173;-52
2023/04/12 01:23:25;;;;;;;6.78;4.75;;;8.20;39.70;;;;;;5034879;28;20223;-51
2023/04/12 01:26:09;;;;;;;5.80;4.50;;;8.20;39.60;;;;;;5034978;28;20652;-52
2023/04/12 01:28:40;;;;;;;8.32;5.38;;;8.20;39.60;;;;;;5035143;28;20237;-51
2023/04/12 01:31:07;;;;;;;6.57;4.38;;;8.20;39.60;;;;;;5035179;28;20189;-52
2023/04/12 01:33:37;;;;;;;9.50;6.05;;;8.20;39.50;;;;;;5034628;28;20551;-52
2023/04/12 01:36:10;;;;;;;9.70;5.60;;;8.20;39.60;;;;;;5034530;28;20277;-52
2023/04/12 01:38:36;;;;;;;7.68;4.75;;;8.20;39.50;;;;;;5034681;28;20600;-52
2023/04/12 01:41:02;;;;;;;7.68;4.80;;;8.20;39.40;;;;;;5034624;28;20181;-52
2023/04/12 01:43:28;;;;;;;5.40;4.70;;;8.10;39.50;;;;;;5034442;28;20205;-53
2023/04/12 01:45:53;;;;;;;8.80;4.40;;;8.10;39.50;;;;;;5034497;28;20459;-52
2023/04/12 01:48:19;;;;;;;8.80;4.30;;;8.00;39.50;;;;;;5034548;28;20541;-52
2023/04/12 01:51:02;;;;;;;5.23;4.73;;;8.00;39.50;;;;;;5034470;28;20193;-52
2023/04/12 01:53:38;;;;;;;7.13;3.97;;;8.00;39.50;;;;;;5034521;28;20452;-52
2023/04/12 01:56:08;;;;;;;4.60;3.90;;;7.90;39.60;;;;;;5034353;28;20192;-52
2023/04/12 01:58:36;;;;;;;5.38;3.92;;;7.90;39.80;;;;;;5034648;28;20165;-52
2023/04/12 02:01:02;;;;;;;4.78;4.15;;;7.80;39.80;;;;;;5034424;28;20714;-52
2023/04/12 02:03:30;;;;;;;4.45;3.13;;;7.90;39.90;;;;;;5033892;28;20554;-52
2023/04/12 02:05:58;;;;;;;7.18;4.45;;;7.90;40.00;;;;;;5034289;28;20288;-52
2023/04/12 02:08:24;;;;;;;4.63;3.75;;;7.80;39.80;;;;;;5034101;28;20183;-52
2023/04/12 02:10:50;;;;;;;3.95;3.38;;;7.90;39.80;;;;;;5033163;28;20181;-52
2023/04/12 02:13:18;;;;;;;11.07;4.97;;;7.90;39.90;;;;;;5033797;28;20171;-52
2023/04/12 02:15:44;;;;;;;5.82;3.22;;;7.80;39.80;;;;;;5033981;28;20197;-52
2023/04/12 02:18:12;;;;;;;4.63;3.80;;;7.80;39.90;;;;;;5033930;28;20188;-52
2023/04/12 02:20:39;;;;;;;6.22;3.17;;;7.90;39.90;;;;;;5034073;28;20576;-50
2023/04/12 02:23:05;;;;;;;5.35;4.20;;;7.90;39.80;;;;;;5033702;28;20263;-52
2023/04/12 02:25:32;;;;;;;6.40;3.53;;;7.80;39.70;;;;;;5033761;28;20197;-52
2023/04/12 02:27:58;;;;;;;7.55;4.35;;;7.80;39.60;;;;;;5033776;28;20178;-52
2023/04/12 02:30:23;;;;;;;7.10;3.63;;;7.80;39.40;;;;;;5033747;28;20166;-52
2023/04/12 02:32:50;;;;;;;4.10;3.70;;;7.80;39.40;;;;;;5033444;28;20408;-52
2023/04/12 02:35:16;;;;;;;9.63;3.53;;;7.80;39.40;;;;;;5033652;28;20198;-52
2023/04/12 02:37:46;;;;;;;5.78;3.45;;;7.70;39.60;;;;;;5033917;28;20171;-51
2023/04/12 02:40:14;;;;;;;7.53;3.13;;;7.70;39.60;;;;;;5033544;28;20277;-53
2023/04/12 02:42:41;;;;;;;11.05;4.30;;;7.70;39.50;;;;;;5033399;28;20180;-53
2023/04/12 02:45:07;;;;;;;5.38;3.63;;;7.50;39.50;;;;;;5033221;28;20204;-53
2023/04/12 02:47:33;;;;;;;3.95;3.55;;;7.40;39.50;;;;;;5033627;28;20216;-52
2023/04/12 02:49:59;;;;;;;4.40;3.40;;;7.30;39.60;;;;;;5033606;28;20274;-52
2023/04/12 02:52:25;;;;;;;3.53;3.20;;;7.20;39.60;;;;;;5033069;28;20174;-51
2023/04/12 02:54:51;;;;;;;4.77;3.50;;;7.20;39.70;;;;;;5033326;28;20405;-53
2023/04/12 02:57:17;;;;;;;4.82;4.00;;;7.20;39.80;;;;;;5033159;28;20203;-52
2023/04/12 02:59:43;;;;;;;5.10;4.00;;;7.20;39.80;;;;;;5033108;28;20185;-51
2023/04/12 03:02:09;;;;;;;13.00;5.33;;;7.20;39.80;;;;;;5033245;28;20418;-53
2023/04/12 03:04:38;;;;;;;5.35;4.15;;;7.10;39.70;;;;;;5032987;28;21142;-53
2023/04/12 03:07:05;;;;;;;6.05;3.85;;;7.10;39.70;;;;;;5033078;28;20221;-53
2023/04/12 03:09:31;;;;;;;7.40;4.00;;;7.10;39.50;;;;;;5033313;28;20179;-52
2023/04/12 03:11:57;;;;;;;5.20;4.07;;;7.10;39.60;;;;;;5032980;28;20185;-53
2023/04/12 03:14:23;;;;;;;5.40;3.63;;;7.10;39.50;;;;;;5033189;28;20174;-53
2023/04/12 03:16:50;;;;;;;7.90;4.97;;;7.10;39.40;;;;;;5033037;28;20788;-53
2023/04/12 03:19:16;;;;;;;5.80;3.83;;;7.00;39.30;;;;;;5032912;28;20174;-53
2023/04/12 03:21:42;;;;;;;6.78;3.97;;;7.10;39.50;;;;;;5032357;28;20174;-53
2023/04/12 03:24:07;;;;;;;7.37;3.90;;;7.00;39.60;;;;;;5032824;28;20213;-53
2023/04/12 03:26:34;;;;;;;4.70;3.20;;;7.00;39.60;;;;;;5032587;28;20428;-53
2023/04/12 03:29:07;;;;;;;4.15;3.20;;;7.00;39.70;;;;;;5032591;28;20655;-53
2023/04/12 03:31:33;;;;;;;4.47;3.42;;;7.00;39.70;;;;;;5032779;28;20228;-53
2023/04/12 03:34:00;;;;;;;5.40;3.55;;;7.00;39.70;;;;;;5032418;28;20269;-53
2023/04/12 03:36:26;;;;;;;5.95;3.97;;;7.00;39.70;;;;;;5032321;28;20205;-52
2023/04/12 03:38:52;;;;;;;4.30;3.60;;;7.00;39.90;;;;;;5032463;28;20181;-52
2023/04/12 03:41:20;;;;;;;9.65;4.15;;;6.90;40.10;;;;;;5032374;28;20440;-53
2023/04/12 03:43:46;;;;;;;6.70;4.13;;;7.00;40.00;;;;;;5032117;28;20182;-51
2023/04/12 03:46:14;;;;;;;6.47;4.90;;;7.00;40.10;;;;;;5032544;28;20259;-52
2023/04/12 03:48:40;;;;;;;5.43;4.38;;;7.00;40.30;;;;;;5032415;28;20170;-53
2023/04/12 03:51:07;;;;;;;5.50;4.38;;;7.00;40.40;;;;;;5032603;28;20177;-53
2023/04/12 03:53:33;;;;;;;4.57;3.65;;;7.00;40.30;;;;;;5032012;28;20627;-53
2023/04/12 03:55:59;;;;;;;7.00;4.22;;;7.00;40.30;;;;;;5032355;28;20205;-53
2023/04/12 03:58:25;;;;;;;5.70;4.23;;;7.00;40.30;;;;;;5032065;28;20176;-53
2023/04/12 04:00:50;;;;;;;7.50;5.77;;;6.90;40.40;;;;;;5032214;28;20463;-53
2023/04/12 04:03:17;;;;;;;4.60;3.53;;;6.90;40.30;;;;;;5031879;28;20474;-53
2023/04/12 04:05:43;;;;;;;7.20;4.53;;;7.00;40.40;;;;;;5032029;28;20467;-53
2023/04/12 04:08:09;;;;;;;4.27;3.87;;;6.90;40.40;;;;;;5032090;28;20174;-53
2023/04/12 04:10:35;;;;;;;9.77;3.70;;;6.90;40.60;;;;;;5031945;28;20413;-53
2023/04/12 04:13:01;;;;;;;6.57;4.50;;;6.90;40.60;;;;;;5031860;28;20170;-53
2023/04/12 04:15:27;;;;;;;4.57;4.17;;;6.90;40.60;;;;;;5032220;28;20433;-52
2023/04/12 04:17:52;;;;;;;6.55;4.30;;;6.90;40.70;;;;;;5032157;28;20408;-52
2023/04/12 04:20:19;;;;;;;5.30;4.57;;;6.90;40.90;;;;;;5031974;28;20178;-52
2023/04/12 04:22:48;;;;;;;4.72;3.75;;;6.90;40.80;;;;;;5031738;28;20415;-52
2023/04/12 04:25:15;;;;;;;4.93;4.22;;;6.90;40.60;;;;;;5031673;28;20622;-53
2023/04/12 04:27:43;;;;;;;6.18;3.95;;;6.90;40.50;;;;;;5032114;28;20561;-51
2023/04/12 04:30:10;;;;;;;5.10;4.57;;;6.90;40.60;;;;;;5031764;28;20182;-51
2023/04/12 04:32:37;;;;;;;5.47;4.57;;;6.90;40.60;;;;;;5032236;28;20597;-51
2023/04/12 04:35:03;;;;;;;4.63;3.85;;;6.80;40.40;;;;;;5035543;28;20181;-49
2023/04/12 04:37:30;;;;;;;5.00;4.15;;;6.80;40.60;;;;;;5035698;28;20249;-50
2023/04/12 04:39:56;;;;;;;7.43;5.18;;;6.80;40.40;;;;;;5036127;28;20301;-50
2023/04/12 04:42:23;;;;;;;6.03;4.57;;;6.80;40.50;;;;;;5035697;28;20182;-51
2023/04/12 04:45:03;;;;;;;8.32;7.10;;;6.80;40.50;;;;;;5035768;28;20924;-51
2023/04/12 04:47:29;;;;;;;7.05;4.57;;;6.90;40.60;;;;;;5035674;28;20166;-50
2023/04/12 04:49:58;;;;;;;9.35;4.72;;;6.90;40.70;;;;;;5035615;28;20642;-52
2023/04/12 04:52:24;;;;;;;6.90;5.55;;;6.90;40.70;;;;;;5035573;28;20257;-50
2023/04/12 04:54:50;;;;;;;6.28;5.45;;;7.00;40.90;;;;;;5035584;28;20181;-50
2023/04/12 04:57:16;;;;;;;6.70;4.35;;;7.00;40.90;;;;;;5035653;28;20560;-50
2023/04/12 04:59:42;;;;;;;5.27;4.80;;;7.00;40.90;;;;;;5035364;28;20182;-52
2023/04/12 05:02:09;;;;;;;11.33;4.80;;;7.10;40.90;;;;;;5035255;28;20178;-51
2023/04/12 05:04:35;;;;;;;6.00;4.80;;;7.20;40.80;;;;;;5035147;28;20202;-51
2023/04/12 05:07:02;;;;;;;6.15;4.97;;;7.20;41.00;;;;;;5035242;28;20202;-51
2023/04/12 05:09:27;;;;;;;6.03;4.65;;;7.30;41.10;;;;;;5035231;28;20166;-51
2023/04/12 05:11:53;;;;;;;6.63;5.70;;;7.30;41.50;;;;;;5035006;28;20173;-51
2023/04/12 05:14:19;;;;;;;7.27;6.23;;;7.40;41.30;;;;;;5035251;28;20234;-51
2023/04/12 05:16:45;;;;;;;9.00;5.55;;;7.50;41.40;;;;;;5035290;28;20201;-51
2023/04/12 05:19:10;;;;;;;8.20;5.30;;;7.50;41.40;;;;;;5035040;28;20241;-51
2023/04/12 05:21:36;;;;;;;5.17;4.60;;;7.60;41.40;;;;;;5035292;28;20174;-52
2023/04/12 05:24:02;;;;;;;7.70;5.50;;;7.80;41.50;;;;;;5034639;28;20595;-50
2023/04/12 05:26:28;;;;;;;10.57;5.57;;;7.80;41.50;;;;;;5034917;28;20424;-52
2023/04/12 05:28:53;;;;;;;6.27;4.67;;;7.90;42.10;;;;;;5035086;28;20228;-51
2023/04/12 05:31:19;;;;;;;8.33;5.63;;;8.00;41.40;;;;;;5035136;28;20177;-52
2023/04/12 05:33:45;;;;;;;9.93;6.47;;;8.10;41.40;;;;;;5034547;28;20174;-52
2023/04/12 05:36:11;;;;;;;8.70;6.23;;;8.20;41.50;;;;;;5034730;28;20452;-51
2023/04/12 05:38:37;;;;;;;7.73;5.73;;;8.30;41.50;;;;;;5034966;28;20223;-51
2023/04/12 05:41:05;;;;;;;8.53;5.10;;;8.40;41.30;;;;;;5034941;28;20448;-51
2023/04/12 05:43:32;;;;;;;9.82;6.45;;;8.50;41.30;;;;;;5034097;28;20674;-52
2023/04/12 05:45:58;;;;;;;8.07;5.80;;;8.60;41.50;;;;;;5034391;28;20225;-52
2023/04/12 05:48:24;;;;;;;7.95;5.45;;;8.70;42.10;;;;;;5034405;28;20175;-51
2023/04/12 05:50:53;;;;;;;8.50;6.33;;;8.80;41.30;;;;;;5034714;28;20225;-51
2023/04/12 05:53:20;;;;;;;10.52;7.60;;;8.90;41.50;;;;;;5034463;28;20404;-52
2023/04/12 05:55:46;;;;;;;9.68;6.40;;;9.00;41.20;;;;;;5034411;28;20195;-52
2023/04/12 05:58:12;;;;;;;7.90;6.07;;;9.10;41.40;;;;;;5034572;28;20707;-52
2023/04/12 06:00:41;;;;;;;10.68;6.03;;;9.20;41.30;;;;;;5034266;28;20181;-52
2023/04/12 06:03:09;;;;;;;9.43;6.75;;;9.30;41.50;;;;;;5034027;28;20190;-52
2023/04/12 06:05:35;;;;;;;9.13;5.43;;;9.40;41.20;;;;;;5034282;28;20207;-51
2023/04/12 06:08:01;;;;;;;9.27;5.10;;;9.40;40.30;;;;;;5034211;28;20701;-52
2023/04/12 06:10:27;;;;;;;7.25;5.03;;;9.40;40.50;;;;;;5034080;28;20438;-51
2023/04/12 06:12:53;;;;;;;14.02;5.00;;;9.50;40.60;;;;;;5034056;28;20175;-51
2023/04/12 06:15:19;;;;;;;6.70;5.20;;;9.70;40.60;;;;;;5033925;28;20189;-52
2023/04/12 06:17:46;;;;;;;7.30;4.90;;;9.80;40.20;;;;;;5033900;28;20208;-52
2023/04/12 06:20:12;;;;;;;11.98;6.30;;;10.00;40.10;;;;;;5034063;28;20187;-53
2023/04/12 06:22:37;;;;;;;6.80;5.03;;;10.10;39.90;;;;;;5033652;28;20174;-52
2023/04/12 06:25:04;;;;;;;7.93;5.70;;;10.20;39.70;;;;;;5033993;28;20211;-52
2023/04/12 06:27:30;;;;;;;6.35;5.40;;;10.40;39.70;;;;;;5033764;28;20588;-51
2023/04/12 06:29:56;;;;;;;8.10;5.30;;;10.50;39.50;;;;;;5033595;28;20698;-52
2023/04/12 06:32:22;;;;;;;8.00;5.85;;;10.60;39.20;;;;;;5033712;28;20181;-52
2023/04/12 06:34:48;;;;;;;6.93;5.40;;;10.70;39.30;;;;;;5032425;28;20177;-52
2023/04/12 06:37:13;;;;;;;8.60;5.40;;;10.90;39.90;;;;;;5033423;28;20447;-52
2023/04/12 06:39:39;;;;;;;6.90;5.07;;;10.90;38.90;;;;;;5033682;28;20188;-52
2023/04/12 06:42:05;;;;;;;7.07;5.53;;;11.10;38.70;;;;;;5033313;28;20660;-52
2023/04/12 06:44:32;;;;;;;6.13;5.40;;;11.20;38.90;;;;;;5033330;28;20208;-52
2023/04/12 06:46:58;;;;;;;10.18;5.65;;;11.30;38.10;;;;;;5033258;28;20440;-52
2023/04/12 06:49:24;;;;;;;10.05;5.32;;;11.30;37.80;;;;;;5033402;28;20269;-52
2023/04/12 06:51:50;;;;;;;7.53;5.47;;;11.40;38.10;;;;;;5033334;28;20205;-52
2023/04/12 06:54:16;;;;;;;9.60;5.35;;;11.40;38.00;;;;;;5033256;28;20216;-52
2023/04/12 06:56:42;;;;;;;6.57;4.83;;;11.60;37.50;;;;;;5032582;28;20306;-52
2023/04/12 06:59:08;;;;;;;5.80;3.90;;;11.70;37.30;;;;;;5033139;28;20801;-53
2023/04/12 07:01:33;;;;;;;7.63;5.15;;;11.80;36.90;;;;;;5033282;28;20265;-52
2023/04/12 07:03:59;;;;;;;8.03;4.80;;;12.00;36.30;;;;;;5032825;28;20177;-52
2023/04/12 07:06:26;;;;;;;7.60;5.27;;;12.10;36.20;;;;;;5032947;28;20425;-52
2023/04/12 07:08:52;;;;;;;7.90;5.03;;;12.40;36.60;;;;;;5032932;28;20747;-52
2023/04/12 07:11:18;;;;;;;7.70;4.60;;;12.50;35.80;;;;;;5032955;28;20264;-52
2023/04/12 07:13:44;;;;;;;7.07;4.30;;;12.70;35.60;;;;;;5032517;28;20644;-52
2023/04/12 07:16:09;;;;;;;6.90;5.37;;;12.80;35.60;;;;;;5032730;28;20209;-50
2023/04/12 07:18:35;;;;;;;7.03;5.20;;;13.00;34.50;;;;;;5033000;28;20232;-52
2023/04/12 07:21:01;;;;;;;10.77;4.20;;;13.10;34.30;;;;;;5032747;28;20216;-53
2023/04/12 07:23:27;;;;;;;9.13;5.67;;;13.20;34.20;;;;;;5032668;28;20252;-53
2023/04/12 07:25:52;;;;;;;7.53;4.27;;;13.30;34.50;;;;;;5032589;28;20227;-52
2023/04/12 07:28:19;;;;;;;5.90;4.37;;;13.50;34.90;;;;;;5032472;28;20174;-52
2023/04/12 07:30:45;;;;;;;5.93;4.55;;;13.70;33.80;;;;;;5032916;28;20535;-53
2023/04/12 07:33:11;;;;;;;4.80;3.50;;;13.90;34.30;;;;;;5032370;28;20205;-52
2023/04/12 07:35:36;;;;;;;5.07;3.90;;;14.00;33.60;;;;;;5032465;28;20206;-53
2023/04/12 07:38:03;;;;;;;6.93;4.60;;;14.20;33.00;;;;;;5032570;28;20197;-53
2023/04/12 07:40:29;;;;;;;5.43;3.75;;;14.30;32.70;;;;;;5032561;28;20212;-52
2023/04/12 07:42:55;;;;;;;6.75;4.38;;;14.50;33.40;;;;;;5032374;28;20189;-52
2023/04/12 07:45:20;;;;;;;5.03;3.50;;;14.60;33.00;;;;;;5032156;28;20581;-52
2023/04/12 07:47:46;;;;;;;5.83;3.20;;;14.80;32.40;;;;;;5032311;28;20166;-53
2023/04/12 07:50:12;;;;;;;4.33;2.60;;;14.90;32.40;;;;;;5032489;28;20174;-52
2023/04/12 07:52:38;;;;;;;4.35;3.20;;;15.10;31.80;;;;;;5032212;28;20409;-52
2023/04/12 07:55:04;;;;;;;5.13;3.27;;;15.20;30.60;;;;;;5032500;28;20649;-52
2023/04/12 07:57:30;;;;;;;6.07;3.55;;;15.30;30.80;;;;;;5032088;28;20204;-52
2023/04/12 07:59:56;;;;;;;4.07;2.83;;;15.40;31.90;;;;;;5032457;28;20642;-53
2023/04/12 08:02:25;;;;;;;5.23;3.07;;;15.60;30.60;;;;;;5031938;28;20413;-53
2023/04/12 08:04:54;;;;;;;6.35;3.30;;;15.70;30.20;;;;;;5032316;28;20876;-53
2023/04/12 08:07:25;;;;;;;3.72;2.80;;;15.90;30.40;;;;;;5032352;28;20209;-52
2023/04/12 08:09:51;;;;;;;5.03;2.67;;;16.10;31.30;;;;;;5032034;28;20158;-54
2023/04/12 08:12:17;;;;;;;4.30;3.40;;;16.20;29.00;;;;;;5031657;28;20196;-53
2023/04/12 08:14:43;;;;;;;8.47;3.87;;;16.20;29.50;;;;;;5031920;28;20201;-53
2023/04/12 08:17:10;;;;;;;2.58;2.00;;;16.30;30.10;;;;;;5031892;28;20201;-53
2023/04/12 08:19:35;;;;;;;3.83;2.13;;;16.50;29.10;;;;;;5031910;28;20186;-54
2023/04/12 08:22:02;;;;;;;3.57;2.27;;;16.60;27.60;;;;;;5032041;28;20173;-54
2023/04/12 08:24:27;;;;;;;4.05;3.25;;;16.70;28.00;;;;;;5031870;28;20300;-53
2023/04/12 08:26:53;;;;;;;3.40;2.67;;;16.80;27.40;;;;;;5031710;28;20709;-53
2023/04/12 08:29:19;;;;;;;2.53;2.13;;;16.80;27.30;;;;;;5030642;28;20165;-50
2023/04/12 08:31:45;;;;;;;4.07;2.30;;;16.90;29.00;;;;;;5031667;28;20205;-53
2023/04/12 08:34:11;;;;;;;3.30;2.37;;;17.10;24.50;;;;;;5032486;28;20174;-53
2023/04/12 08:36:36;;;;;;;6.23;2.30;;;17.20;25.70;;;;;;5031672;28;20448;-53
2023/04/12 08:39:02;;;;;;;3.40;2.23;;;17.30;25.70;;;;;;5031699;28;20405;-53
2023/04/12 08:41:28;;;;;;;2.57;1.70;;;17.40;25.10;;;;;;5031668;28;20261;-53
2023/04/12 08:43:54;;;;;;;3.50;1.80;;;17.50;22.60;;;;;;5031702;28;20400;-53
2023/04/12 08:46:20;;;;;;;5.20;2.20;;;17.50;23.80;;;;;;5031755;28;20507;-52
2023/04/12 08:48:54;;;;;;;4.20;1.80;;;17.60;21.60;;;;;;5031617;28;20415;-53
2023/04/12 08:51:21;;;;;;;4.20;1.60;;;17.60;22.20;;;;;;5032011;28;20162;-53
2023/04/12 08:53:47;;;;;;;2.95;1.30;;;17.70;22.90;;;;;;5031297;28;20170;-53
2023/04/12 08:56:15;;;;;;;4.80;1.80;;;17.90;22.40;;;;;;5031613;28;20241;-53
2023/04/12 08:58:45;;;;;;;5.85;2.80;;;17.90;20.60;;;;;;5031781;28;20188;-53
2023/04/12 09:01:12;;;;;;;3.83;1.40;;;17.60;21.30;;;;;;5031582;28;20521;-55
2023/04/12 09:03:39;;;;;;;3.42;2.10;;;17.60;22.50;;;;;;5031387;28;20243;-54
2023/04/12 09:06:05;;;;;;;6.78;1.90;;;17.60;20.20;;;;;;5031284;28;20217;-55
2023/04/12 09:08:31;;;;;;;3.30;2.08;;;17.60;21.40;;;;;;5012769;28;20186;-54
2023/04/12 09:10:57;;;;;;;3.97;1.83;;;17.60;22.70;;;;;;5031468;28;20170;-55
2023/04/12 09:13:33;;;;;;;4.10;1.40;;;17.80;23.10;;;;;;5031497;28;20264;-53
2023/04/12 09:15:59;;;;;;;3.33;2.05;;;17.90;22.40;;;;;;5031471;28;20201;-54
2023/04/12 09:18:26;;;;;;;3.65;1.77;;;18.10;20.40;;;;;;5031725;28;20181;-55
2023/04/12 09:21:08;;;;;;;2.17;1.45;;;18.00;19.70;;;;;;5035026;28;20670;-55
2023/04/12 09:23:36;;;;;;;3.22;2.08;;;18.00;20.30;;;;;;5034731;28;20182;-55
2023/04/12 09:26:03;;;;;;;3.47;1.55;;;17.80;20.80;;;;;;5034759;28;20205;-54
2023/04/12 09:28:29;;;;;;;6.55;2.15;;;17.90;22.40;;;;;;5034906;28;20173;-55
2023/04/12 09:30:59;;;;;;;2.88;1.60;;;18.20;21.80;;;;;;5035008;28;20170;-55
2023/04/12 09:33:36;;;;;;;3.53;2.10;;;18.50;22.00;;;;;;5034527;28;20174;-54
2023/04/12 09:36:12;;;;;;;2.38;1.15;;;18.70;21.30;;;;;;5034637;28;20835;-53
2023/04/12 09:38:38;;;;;;;4.65;1.83;;;18.60;20.30;;;;;;5034882;28;20174;-55
2023/04/12 09:41:21;;;;;;;4.20;1.57;;;18.80;21.00;;;;;;5034734;28;20174;-55
2023/04/12 09:43:47;;;;;;;5.13;2.03;;;19.10;20.50;;;;;;5034305;28;20413;-53
2023/04/12 09:46:13;;;;;;;3.03;2.17;;;19.00;20.00;;;;;;5034364;28;20736;-53
2023/04/12 09:48:40;;;;;;;3.20;1.65;;;19.00;21.40;;;;;;5034742;28;20487;-53
2023/04/12 09:51:07;;;;;;;3.33;1.23;;;19.00;20.20;;;;;;5034430;28;20174;-53
2023/04/12 09:53:40;;;;;;;2.70;1.10;;;19.00;19.50;;;;;;5034222;28;20166;-53
2023/04/12 09:56:08;;;;;;;2.88;2.00;;;18.90;19.70;;;;;;5034348;28;20553;-55
2023/04/12 09:58:36;;;;;;;2.45;1.48;;;19.10;20.80;;;;;;5034525;28;20182;-54
2023/04/12 10:01:03;;;;;;;3.10;2.13;;;19.30;19.40;;;;;;5034755;28;20245;-55
2023/04/12 10:03:29;;;;;;;5.88;2.05;;;19.40;19.70;;;;;;5034208;28;20192;-54
2023/04/12 10:05:55;;;;;;;3.83;1.70;;;19.50;20.00;;;;;;5034171;28;20292;-55
2023/04/12 10:08:25;;;;;;;4.03;1.80;;;19.50;20.00;;;;;;5034027;28;20742;-55
2023/04/12 10:10:52;;;;;;;2.60;1.80;;;19.40;20.10;;;;;;5034070;28;20418;-55
2023/04/12 10:13:19;;;;;;;2.72;1.27;;;19.20;20.20;;;;;;5033937;28;20181;-55
2023/04/12 10:15:49;;;;;;;4.30;1.38;;;19.00;19.40;;;;;;5033986;28;20677;-53
2023/04/12 10:18:17;;;;;;;4.65;2.35;;;18.70;20.00;;;;;;5034238;28;20190;-54
2023/04/12 10:20:45;;;;;;;2.30;1.50;;;18.60;21.00;;;;;;5033911;28;20211;-53
2023/04/12 10:23:11;;;;;;;3.33;1.60;;;18.70;20.70;;;;;;5033685;28;20177;-53
2023/04/12 10:25:41;;;;;;;2.75;1.50;;;18.90;20.20;;;;;;5033761;28;20826;-54
2023/04/12 10:28:18;;;;;;;4.55;2.55;;;18.90;20.00;;;;;;5034235;28;20182;-53
2023/04/12 10:30:48;;;;;;;3.53;2.42;;;18.90;21.00;;;;;;5032782;28;20176;-53
2023/04/12 10:33:15;;;;;;;7.05;2.35;;;18.90;20.20;;;;;;5033601;28;20193;-53
2023/04/12 10:35:50;;;;;;;4.65;2.15;;;18.70;21.00;;;;;;5033521;28;20240;-53
2023/04/12 10:38:16;;;;;;;5.80;3.13;;;18.90;21.20;;;;;;5033814;28;20247;-54
2023/04/12 10:41:09;;;;;;;4.60;1.90;;;19.00;21.70;;;;;;5033552;28;20704;-54
2023/04/12 10:43:35;;;;;;;3.63;2.72;;;19.00;22.10;;;;;;5033282;28;20939;-53
2023/04/12 10:46:05;;;;;;;5.40;3.03;;;19.00;23.10;;;;;;5033322;28;20206;-53
2023/04/12 10:48:50;;;;;;;7.00;2.38;;;19.20;22.80;;;;;;5033236;28;20458;-54
2023/04/12 10:51:24;;;;;;;4.57;3.00;;;19.40;20.70;;;;;;5033413;28;20680;-53
2023/04/12 10:53:51;;;;;;;4.75;2.80;;;19.20;21.00;;;;;;5033393;28;20169;-53
2023/04/12 10:56:46;;;;;;;4.05;3.35;;;18.90;22.00;;;;;;5033152;28;20347;-53
2023/04/12 10:59:15;;;;;;;7.53;3.15;;;18.90;22.80;;;;;;5016274;28;20530;-54
2023/04/12 11:02:01;;;;;;;6.05;3.25;;;18.80;23.10;;;;;;5033176;28;20256;-54
2023/04/12 11:04:27;;;;;;;7.25;3.22;;;19.10;24.00;;;;;;5032937;28;20228;-52
2023/04/12 11:06:55;;;;;;;10.37;3.57;;;19.40;22.20;;;;;;5033222;28;20217;-53
2023/04/12 11:09:33;;;;;;;5.85;2.75;;;19.50;22.50;;;;;;5032925;28;20645;-53
2023/04/12 11:12:04;;;;;;;6.75;3.03;;;19.80;22.10;;;;;;5032686;28;20185;-54
2023/04/12 11:14:33;;;;;;;4.85;2.97;;;20.00;22.70;;;;;;5032860;28;20177;-54
2023/04/12 11:17:05;;;;;;;4.53;3.35;;;19.80;21.40;;;;;;5033037;28;20205;-54
2023/04/12 11:19:38;;;;;;;5.25;3.60;;;19.60;23.40;;;;;;5032696;28;20252;-53
2023/04/12 11:22:06;;;;;;;5.95;3.05;;;19.70;24.20;;;;;;5032875;28;20170;-54
2023/04/12 11:24:32;;;;;;;3.35;3.05;;;19.90;23.60;;;;;;5032646;28;20754;-54
2023/04/12 11:26:59;;;;;;;7.15;3.20;;;20.10;24.40;;;;;;5032780;28;20198;-54
2023/04/12 11:29:28;;;;;;;5.40;3.47;;;20.20;22.30;;;;;;5032597;28;20653;-54
2023/04/12 11:31:54;;;;;;;5.90;2.80;;;20.30;22.50;;;;;;5032442;28;20215;-54
2023/04/12 11:34:21;;;;;;;5.70;3.20;;;20.30;22.80;;;;;;5032479;28;20752;-54
2023/04/12 11:36:51;;;;;;;6.13;2.90;;;20.00;23.20;;;;;;5032376;28;20571;-53
2023/04/12 11:39:18;;;;;;;5.47;3.42;;;20.00;23.10;;;;;;5032457;28;20158;-54
2023/04/12 11:41:47;;;;;;;6.65;3.80;;;20.30;23.40;;;;;;5032061;28;20189;-54
2023/04/12 11:44:17;;;;;;;7.00;3.58;;;20.40;23.50;;;;;;5032348;28;20265;-54
2023/04/12 11:46:43;;;;;;;6.80;4.10;;;20.70;22.70;;;;;;5032155;28;20209;-54
2023/04/12 11:49:09;;;;;;;13.23;7.88;;;20.80;22.60;;;;;;5032316;28;20178;-55
2023/04/12 11:51:35;;;;;;;12.30;6.40;;;21.00;22.10;;;;;;5032422;28;20177;-54
2023/04/12 11:54:01;;;;;;;3.93;3.20;;;20.80;22.30;;;;;;5032127;28;20401;-54
2023/04/12 11:56:28;;;;;;;5.83;3.30;;;20.80;22.30;;;;;;5032562;28;20251;-56
2023/04/12 11:58:54;;;;;;;4.55;3.15;;;20.90;23.00;;;;;;5032472;28;20178;-56
2023/04/12 12:01:21;;;;;;;5.83;3.17;;;21.00;22.10;;;;;;5032370;28;20703;-54
2023/04/12 12:03:47;;;;;;;3.92;3.53;;;21.10;22.60;;;;;;5031871;28;20792;-56
2023/04/12 12:06:14;;;;;;;11.40;4.15;;;21.20;22.40;;;;;;5032017;28;20214;-54
2023/04/12 12:08:40;;;;;;;6.13;3.47;;;21.20;22.30;;;;;;5032311;28;20178;-55
2023/04/12 12:11:07;;;;;;;6.93;3.92;;;21.10;22.00;;;;;;5032059;28;20581;-54
2023/04/12 12:13:49;;;;;;;6.40;3.45;;;20.80;21.70;;;;;;5031698;28;20617;-53
2023/04/12 12:16:16;;;;;;;4.93;3.55;;;20.60;22.80;;;;;;5031946;28;20197;-55
2023/04/12 12:18:42;;;;;;;5.40;4.18;;;20.50;23.10;;;;;;5032257;28;20486;-54
2023/04/12 12:21:09;;;;;;;8.43;3.95;;;20.30;23.00;;;;;;5032231;28;20174;-53
2023/04/12 12:23:36;;;;;;;4.78;3.17;;;20.30;22.90;;;;;;5031738;28;20201;-54
2023/04/12 12:26:04;;;;;;;4.88;3.60;;;20.30;22.80;;;;;;5031743;28;20272;-54
2023/04/12 12:28:30;;;;;;;4.43;3.08;;;20.40;22.70;;;;;;5031771;28;20181;-54
2023/04/12 12:30:58;;;;;;;4.00;3.10;;;20.40;22.70;;;;;;5031921;28;20174;-54
2023/04/12 12:33:35;;;;;;;4.82;3.33;;;20.50;22.80;;;;;;5031748;28;20166;-54
2023/04/12 12:36:00;;;;;;;3.08;2.20;;;20.60;22.20;;;;;;5031554;28;20778;-54
2023/04/12 12:38:37;;;;;;;5.33;2.77;;;20.80;21.50;;;;;;5031698;28;20182;-53
2023/04/12 12:41:17;;;;;;;5.55;2.55;;;20.70;21.10;;;;;;5031743;28;20189;-54
2023/04/12 12:43:52;;;;;;;7.40;2.90;;;20.50;21.00;;;;;;5031563;28;20252;-54
2023/04/12 12:46:18;;;;;;;5.00;2.83;;;20.30;21.70;;;;;;5031792;28;20205;-54
2023/04/12 12:48:45;;;;;;;5.05;2.10;;;20.40;21.40;;;;;;5031685;28;20209;-54
2023/04/12 12:51:13;;;;;;;5.10;2.42;;;20.60;21.90;;;;;;5031840;28;20170;-56
2023/04/12 12:53:39;;;;;;;5.40;2.40;;;20.70;21.50;;;;;;5032414;28;20182;-55